createdAt,value
2023-03-03T00:02:14.968Z,17.64
2023-03-03T00:05:03.762Z,17.68
2023-03-03T00:07:46.027Z,17.59
2023-03-03T00:10:34.641Z,17.61
2023-03-03T00:13:37.716Z,17.55
2023-03-03T00:16:50.221Z,17.51
2023-03-03T00:19:31.708Z,17.55
2023-03-03T00:22:28.073Z,17.76
2023-03-03T00:25:44.705Z,17.85
2023-03-03T00:28:39.747Z,17.94
2023-03-03T00:31:44.032Z,17.94
2023-03-03T00:34:38.787Z,17.99
2023-03-03T00:37:31.239Z,17.79
2023-03-03T00:40:35.711Z,17.95
2023-03-03T00:43:40.752Z,17.80
2023-03-03T00:46:24.938Z,17.82
2023-03-03T00:49:14.940Z,17.85
2023-03-03T00:52:03.059Z,17.96
2023-03-03T00:54:44.793Z,17.96
2023-03-03T00:57:32.972Z,18.04
2023-03-03T01:00:19.689Z,17.92
2023-03-03T01:03:06.815Z,17.87
2023-03-03T01:05:55.792Z,17.78
2023-03-03T01:08:48.102Z,17.78
2023-03-03T01:11:34.749Z,17.81
2023-03-03T01:14:17.044Z,17.96
2023-03-03T01:17:06.641Z,18.05
2023-03-03T01:19:48.942Z,18.05
2023-03-03T01:22:37.685Z,18.09
2023-03-03T01:25:19.978Z,18.11
2023-03-03T01:28:08.637Z,18.05
2023-03-03T01:30:57.045Z,18.24
2023-03-03T01:33:40.706Z,17.95
2023-03-03T01:36:27.502Z,17.88
2023-03-03T01:39:16.685Z,17.92
2023-03-03T01:41:59.100Z,17.93
2023-03-03T01:44:48.736Z,17.92
2023-03-03T01:47:41.733Z,17.90
2023-03-03T01:50:42.643Z,17.80
2023-03-03T01:53:41.633Z,18.16
2023-03-03T01:56:45.609Z,18.16
2023-03-03T01:59:40.632Z,18.42
2023-03-03T02:02:24.062Z,18.21
2023-03-03T02:05:13.651Z,18.38
2023-03-03T02:07:55.964Z,18.52
2023-03-03T02:10:45.737Z,18.51
2023-03-03T02:13:27.953Z,18.53
2023-03-03T02:16:16.793Z,18.47
2023-03-03T02:19:05.678Z,18.45
2023-03-03T02:21:47.944Z,18.42
2023-03-03T02:27:45.673Z,18.92
2023-03-03T02:30:31.026Z,19.00
2023-03-03T02:33:19.745Z,19.32
2023-03-03T02:36:03.482Z,19.38
2023-03-03T02:39:13.699Z,18.91
2023-03-03T02:42:07.502Z,19.17
2023-03-03T02:45:01.699Z,18.96
2023-03-03T02:47:43.948Z,19.11
2023-03-03T02:50:33.736Z,19.12
2023-03-03T02:53:22.524Z,19.07
2023-03-03T02:56:11.881Z,19.18
2023-03-03T02:58:53.938Z,19.24
2023-03-03T03:01:45.746Z,19.36
2023-03-03T03:04:31.996Z,19.33
2023-03-03T03:07:20.673Z,19.23
2023-03-03T03:10:09.788Z,19.40
2023-03-03T03:12:57.899Z,19.34
2023-03-03T03:15:40.733Z,19.57
2023-03-03T03:18:28.940Z,19.58
2023-03-03T03:21:16.735Z,19.43
2023-03-03T03:24:05.744Z,19.69
2023-03-03T03:26:52.912Z,19.91
2023-03-03T03:29:42.726Z,20.06
2023-03-03T03:32:26.002Z,20.53
2023-03-03T03:35:15.721Z,20.65
2023-03-03T03:37:57.910Z,21.16
2023-03-03T03:40:46.730Z,22.29
2023-03-03T03:43:35.705Z,23.11
2023-03-03T03:46:24.831Z,23.24
2023-03-03T03:49:06.912Z,23.16
2023-03-03T03:51:57.683Z,23.04
2023-03-03T03:54:42.119Z,23.67
2023-03-03T03:57:30.678Z,24.82
2023-03-03T04:00:14.114Z,25.32
2023-03-03T04:03:09.789Z,25.92
2023-03-03T04:05:54.519Z,26.72
2023-03-03T04:08:43.949Z,26.83
2023-03-03T04:11:29.176Z,27.06
2023-03-03T04:14:19.744Z,27.12
2023-03-03T04:17:03.041Z,27.52
2023-03-03T04:19:51.795Z,27.64
2023-03-03T04:22:34.986Z,27.41
2023-03-03T04:25:24.712Z,27.70
2023-03-03T04:28:14.688Z,28.35
2023-03-03T04:31:05.613Z,28.48
2023-03-03T04:33:48.764Z,28.30
2023-03-03T04:36:39.062Z,28.05
2023-03-03T04:39:21.691Z,28.48
2023-03-03T04:42:12.964Z,28.54
2023-03-03T04:44:56.683Z,28.44
2023-03-03T04:47:39.062Z,28.30
2023-03-03T04:50:28.676Z,28.49
2023-03-03T04:53:11.878Z,28.71
2023-03-03T04:56:01.730Z,28.99
2023-03-03T04:58:52.036Z,29.08
2023-03-03T05:01:34.693Z,28.88
2023-03-03T05:04:23.735Z,28.79
2023-03-03T05:07:05.996Z,28.93
2023-03-03T05:09:55.149Z,29.23
2023-03-03T05:12:37.062Z,28.95
2023-03-03T05:15:25.666Z,28.51
2023-03-03T05:18:07.992Z,28.58
2023-03-03T05:20:57.676Z,28.62
2023-03-03T05:23:39.948Z,28.73
2023-03-03T05:26:28.686Z,28.51
2023-03-03T05:29:11.981Z,28.40
2023-03-03T05:32:00.759Z,28.78
2023-03-03T05:34:49.652Z,28.23
2023-03-03T05:37:31.952Z,28.48
2023-03-03T05:40:21.716Z,28.67
2023-03-03T05:43:10.708Z,28.61
2023-03-03T05:45:53.029Z,28.64
2023-03-03T05:48:41.707Z,28.81
2023-03-03T05:51:24.076Z,29.05
2023-03-03T05:54:12.711Z,28.94
2023-03-03T05:57:07.545Z,28.67
2023-03-03T05:59:56.813Z,28.69
2023-03-03T06:02:47.993Z,28.57
2023-03-03T06:05:36.684Z,28.48
2023-03-03T06:08:18.980Z,28.26
2023-03-03T06:11:07.760Z,28.46
2023-03-03T06:13:49.979Z,28.75
2023-03-03T06:16:38.728Z,28.38
2023-03-03T06:19:21.026Z,28.21
2023-03-03T06:22:09.621Z,28.23
2023-03-03T06:24:53.704Z,28.36
2023-03-03T06:27:43.025Z,28.25
2023-03-03T06:30:24.994Z,28.48
2023-03-03T06:33:15.079Z,28.07
2023-03-03T06:36:05.810Z,28.27
2023-03-03T06:38:54.682Z,28.35
2023-03-03T06:41:36.908Z,28.26
2023-03-03T06:44:27.671Z,28.41
2023-03-03T06:47:10.954Z,28.25
2023-03-03T06:49:59.708Z,28.40
2023-03-03T06:52:42.022Z,28.45
2023-03-03T06:55:31.646Z,28.09
2023-03-03T06:58:20.988Z,28.20
2023-03-03T07:01:09.650Z,28.15
2023-03-03T07:03:52.095Z,27.87
2023-03-03T07:06:40.726Z,28.11
2023-03-03T07:09:35.052Z,28.05
2023-03-03T07:12:43.699Z,27.94
2023-03-03T07:15:29.029Z,28.09
2023-03-03T07:18:33.685Z,27.81
2023-03-03T07:21:36.799Z,27.82
2023-03-03T07:24:21.665Z,27.93
2023-03-03T07:27:39.723Z,28.02
2023-03-03T07:30:30.673Z,27.97
2023-03-03T07:33:32.730Z,27.96
2023-03-03T07:36:44.949Z,28.04
2023-03-03T07:39:40.667Z,28.08
2023-03-03T07:42:30.549Z,27.86
2023-03-03T07:45:42.746Z,27.78
2023-03-03T07:48:45.000Z,27.71
2023-03-03T07:51:35.702Z,27.75
2023-03-03T07:54:23.358Z,27.79
2023-03-03T07:57:20.704Z,27.82
2023-03-03T08:00:19.622Z,27.59
2023-03-03T08:03:11.690Z,27.50
2023-03-03T08:06:00.197Z,27.49
2023-03-03T08:08:44.689Z,27.56
2023-03-03T08:11:34.021Z,27.57
2023-03-03T08:14:23.820Z,27.54
2023-03-03T08:17:27.321Z,27.55
2023-03-03T08:20:16.625Z,27.38
2023-03-03T08:23:05.010Z,27.43
2023-03-03T08:25:48.609Z,27.37
2023-03-03T08:28:37.747Z,27.33
2023-03-03T08:31:31.097Z,27.29
2023-03-03T08:34:27.634Z,27.40
2023-03-03T08:37:09.949Z,27.38
2023-03-03T08:39:58.647Z,27.47
2023-03-03T08:42:40.885Z,27.51
2023-03-03T08:45:30.053Z,27.27
2023-03-03T08:48:11.893Z,27.26
2023-03-03T08:51:00.653Z,27.29
2023-03-03T08:53:49.617Z,27.14
2023-03-03T08:56:31.828Z,27.12
2023-03-03T08:59:21.715Z,27.02
2023-03-03T09:02:03.919Z,26.89
2023-03-03T09:04:52.637Z,26.89
2023-03-03T09:07:35.073Z,26.89
2023-03-03T09:10:25.685Z,26.71
2023-03-03T09:13:17.686Z,26.76
2023-03-03T09:16:06.708Z,26.64
2023-03-03T09:18:54.954Z,26.55
2023-03-03T09:21:42.658Z,26.53
2023-03-03T09:24:36.651Z,26.56
2023-03-03T09:27:31.899Z,26.65
2023-03-03T09:30:42.766Z,26.76
2023-03-03T09:33:52.668Z,26.70
2023-03-03T09:36:46.704Z,26.56
2023-03-03T09:39:41.679Z,26.51
2023-03-03T09:43:05.125Z,26.72
2023-03-03T09:46:05.668Z,26.67
2023-03-03T09:49:21.166Z,26.59
2023-03-03T09:52:42.671Z,26.55
2023-03-03T09:55:51.415Z,26.48
2023-03-03T09:59:04.703Z,26.30
2023-03-03T10:02:26.028Z,26.29
2023-03-03T10:05:14.649Z,26.35
2023-03-03T10:08:10.675Z,26.41
2023-03-03T10:11:16.916Z,26.54
2023-03-03T10:14:12.764Z,26.69
2023-03-03T10:17:29.750Z,26.78
2023-03-03T10:20:49.076Z,26.82
2023-03-03T10:23:56.861Z,26.80
2023-03-03T10:27:05.253Z,26.72
2023-03-03T10:30:00.761Z,26.65
2023-03-03T10:33:12.128Z,26.51
2023-03-03T10:36:25.730Z,26.48
2023-03-03T10:39:31.972Z,26.50
2023-03-03T10:42:19.727Z,26.51
2023-03-03T10:45:28.213Z,26.54
2023-03-03T10:48:18.714Z,26.58
2023-03-03T10:51:24.959Z,26.33
2023-03-03T10:54:30.726Z,26.41
2023-03-03T10:57:44.466Z,26.45
2023-03-03T11:00:39.703Z,26.38
2023-03-03T11:03:46.088Z,26.26
2023-03-03T11:07:44.676Z,26.22
2023-03-03T11:10:45.459Z,26.19
2023-03-03T11:13:54.628Z,26.06
2023-03-03T11:16:49.950Z,25.91
2023-03-03T11:19:38.678Z,25.90
2023-03-03T11:22:40.198Z,25.80
2023-03-03T11:25:49.073Z,25.70
2023-03-03T11:28:31.212Z,25.52
2023-03-03T11:31:32.720Z,25.47
2023-03-03T11:34:32.932Z,25.36
2023-03-03T11:37:27.695Z,25.30
2023-03-03T11:40:19.965Z,25.15
2023-03-03T11:43:37.441Z,25.19
2023-03-03T11:46:51.956Z,25.16
2023-03-03T11:50:24.720Z,25.19
2023-03-03T11:53:39.908Z,25.11
2023-03-03T11:56:54.664Z,25.05
2023-03-03T12:00:24.653Z,25.02
2023-03-03T12:03:36.748Z,24.92
2023-03-03T12:07:04.022Z,24.83
2023-03-03T12:10:19.679Z,24.83
2023-03-03T12:13:31.020Z,24.77
2023-03-03T12:16:26.729Z,24.72
2023-03-03T12:19:25.114Z,24.66
2023-03-03T12:23:06.751Z,24.62
2023-03-03T12:26:08.016Z,24.52
2023-03-03T12:29:36.676Z,24.47
2023-03-03T12:32:40.095Z,24.40
2023-03-03T12:35:55.661Z,24.30
2023-03-03T12:38:58.939Z,24.26
2023-03-03T12:41:58.719Z,24.14
2023-03-03T12:45:14.955Z,24.06
2023-03-03T12:48:22.694Z,23.96
2023-03-03T12:51:41.988Z,23.86
2023-03-03T12:54:52.720Z,23.78
2023-03-03T12:57:52.064Z,23.76
2023-03-03T13:01:07.755Z,23.63
2023-03-03T13:04:13.170Z,23.54
2023-03-03T13:07:26.751Z,23.44
2023-03-03T13:10:18.120Z,23.33
2023-03-03T13:13:43.732Z,23.24
2023-03-03T13:17:03.852Z,23.24
2023-03-03T13:20:07.015Z,23.13
2023-03-03T13:23:27.655Z,23.03
2023-03-03T13:26:18.411Z,22.99
2023-03-03T13:29:19.730Z,22.99
2023-03-03T13:32:10.185Z,22.92
2023-03-03T13:35:38.671Z,22.86
2023-03-03T13:39:00.202Z,22.82
2023-03-03T13:41:54.734Z,22.75
2023-03-03T13:44:49.973Z,22.63
2023-03-03T13:48:01.710Z,22.64
2023-03-03T13:51:01.716Z,22.54
2023-03-03T13:53:50.380Z,22.55
2023-03-03T13:57:04.664Z,22.55
2023-03-03T14:00:26.948Z,22.54
2023-03-03T14:03:48.166Z,22.52
2023-03-03T14:06:38.757Z,22.47
2023-03-03T14:10:00.957Z,22.58
2023-03-03T14:12:59.717Z,22.53
2023-03-03T14:16:13.019Z,22.42
2023-03-03T14:18:57.683Z,22.48
2023-03-03T14:22:05.696Z,22.57
2023-03-03T14:25:14.944Z,22.44
2023-03-03T14:28:15.156Z,22.28
2023-03-03T14:30:57.951Z,22.25
2023-03-03T14:34:05.152Z,22.34
2023-03-03T14:36:49.683Z,22.24
2023-03-03T14:39:45.785Z,22.24
2023-03-03T14:43:00.657Z,22.18
2023-03-03T14:45:51.205Z,22.15
2023-03-03T14:48:35.661Z,22.14
2023-03-03T14:51:33.998Z,22.08
2023-03-03T14:54:38.724Z,22.16
2023-03-03T14:57:57.152Z,22.07
2023-03-03T15:00:52.763Z,22.13
2023-03-03T15:03:43.924Z,22.11
2023-03-03T15:06:57.696Z,22.04
2023-03-03T15:09:57.970Z,22.13
2023-03-03T15:12:45.940Z,22.07
2023-03-03T15:15:30.891Z,21.96
2023-03-03T15:18:27.670Z,21.93
2023-03-03T15:21:27.229Z,21.88
2023-03-03T15:24:38.699Z,21.85
2023-03-03T15:27:43.695Z,21.76
2023-03-03T15:30:38.988Z,21.64
2023-03-03T15:33:38.632Z,21.55
2023-03-03T15:36:45.674Z,21.51
2023-03-03T15:39:42.045Z,21.43
2023-03-03T15:42:43.749Z,21.35
2023-03-03T15:45:51.004Z,21.26
2023-03-03T15:48:54.674Z,21.25
2023-03-03T15:52:02.730Z,21.23
2023-03-03T15:55:09.655Z,21.11
2023-03-03T15:58:07.673Z,21.04
2023-03-03T16:01:16.194Z,21.04
2023-03-03T16:04:13.760Z,20.99
2023-03-03T16:07:24.582Z,20.91
2023-03-03T16:10:07.453Z,20.90
2023-03-03T16:13:09.013Z,20.90
2023-03-03T16:16:18.092Z,20.82
2023-03-03T16:19:33.692Z,20.72
2023-03-03T16:22:57.054Z,20.88
2023-03-03T16:26:19.735Z,20.72
2023-03-03T16:29:29.299Z,20.59
2023-03-03T16:32:57.979Z,20.84
2023-03-03T16:35:46.826Z,20.62
2023-03-03T16:38:47.703Z,20.53
2023-03-03T16:42:11.053Z,20.92
2023-03-03T16:45:08.857Z,20.72
2023-03-03T16:48:07.100Z,20.79
2023-03-03T16:51:22.804Z,20.88
2023-03-03T16:54:15.001Z,20.56
2023-03-03T16:57:26.797Z,20.62
2023-03-03T17:00:38.803Z,20.49
2023-03-03T17:04:01.017Z,20.49
2023-03-03T17:07:13.753Z,20.32
2023-03-03T17:10:15.296Z,20.26
2023-03-03T17:13:20.955Z,20.33
2023-03-03T17:16:42.702Z,20.42
2023-03-03T17:20:02.774Z,20.29
2023-03-03T17:23:22.137Z,20.47
2023-03-03T17:26:22.103Z,20.50
2023-03-03T17:29:44.101Z,20.45
2023-03-03T17:32:45.331Z,20.43
2023-03-03T17:35:47.411Z,20.63
2023-03-03T17:38:36.801Z,20.73
2023-03-03T17:41:34.057Z,20.59
2023-03-03T17:45:10.446Z,20.70
2023-03-03T17:48:06.981Z,20.77
2023-03-03T17:51:28.362Z,20.83
2023-03-03T17:54:53.673Z,20.72
2023-03-03T17:58:06.762Z,20.78
2023-03-03T18:01:14.702Z,20.68
2023-03-03T18:04:31.881Z,20.66
2023-03-03T18:07:30.714Z,20.71
2023-03-03T18:10:42.808Z,20.47
2023-03-03T18:13:39.334Z,20.36
2023-03-03T18:16:47.920Z,20.25
2023-03-03T18:20:17.122Z,20.23
2023-03-03T18:23:02.218Z,20.22
2023-03-03T18:26:23.196Z,20.14
2023-03-03T18:29:29.587Z,20.32
2023-03-03T18:32:32.305Z,20.36
2023-03-03T18:35:51.152Z,20.32
2023-03-03T18:38:47.332Z,20.40
2023-03-03T18:41:37.737Z,20.32
2023-03-03T18:44:36.696Z,20.33
2023-03-03T18:47:22.148Z,20.39
2023-03-03T18:50:24.890Z,20.53
2023-03-03T18:53:37.465Z,20.53
2023-03-03T18:56:56.682Z,20.55
2023-03-03T18:59:46.518Z,20.42
2023-03-03T19:02:43.963Z,20.33
2023-03-03T19:05:50.208Z,20.37
2023-03-03T19:08:44.855Z,20.37
2023-03-03T19:12:04.121Z,20.27
2023-03-03T19:14:50.300Z,20.32
2023-03-03T19:17:46.988Z,20.26
2023-03-03T19:20:33.023Z,20.13
2023-03-03T19:23:29.162Z,20.15
2023-03-03T19:26:33.629Z,20.12
2023-03-03T19:29:40.588Z,20.00
2023-03-03T19:32:39.009Z,19.95
2023-03-03T19:35:35.946Z,19.88
2023-03-03T19:38:55.199Z,19.75
2023-03-03T19:41:51.712Z,19.74
2023-03-03T19:44:43.066Z,19.71
2023-03-03T19:47:44.681Z,19.65
2023-03-03T19:50:48.035Z,19.66
2023-03-03T19:53:48.593Z,19.70
2023-03-03T19:56:52.078Z,19.73
2023-03-03T20:00:05.610Z,19.63
2023-03-03T20:03:25.221Z,19.59
2023-03-03T20:06:41.026Z,19.57
2023-03-03T20:09:33.957Z,19.70
2023-03-03T20:12:40.718Z,19.65
2023-03-03T20:15:30.365Z,19.61
2023-03-03T20:18:48.783Z,19.68
2023-03-03T20:22:11.649Z,19.53
2023-03-03T20:25:16.507Z,19.44
2023-03-03T20:28:17.426Z,19.48
2023-03-03T20:31:26.088Z,19.40
2023-03-03T20:34:36.674Z,19.36
2023-03-03T20:37:32.634Z,19.36
2023-03-03T20:40:40.520Z,19.31
2023-03-03T20:43:53.621Z,19.42
2023-03-03T20:46:41.506Z,19.34
2023-03-03T20:49:57.682Z,19.20
2023-03-03T20:53:23.451Z,18.99
2023-03-03T20:56:27.778Z,18.85
2023-03-03T20:59:28.474Z,18.79
2023-03-03T21:02:32.615Z,18.75
2023-03-03T21:05:27.948Z,18.78
2023-03-03T21:08:17.051Z,18.75
2023-03-03T21:11:06.156Z,18.71
2023-03-03T21:13:59.613Z,18.65
2023-03-03T21:16:42.408Z,18.60
2023-03-03T21:19:38.678Z,18.57
2023-03-03T21:22:23.837Z,18.55
2023-03-03T21:25:12.590Z,18.53
2023-03-03T21:27:54.986Z,18.54
2023-03-03T21:30:43.587Z,18.57
2023-03-03T21:33:53.940Z,18.58
2023-03-03T21:36:45.691Z,18.64
2023-03-03T21:39:54.132Z,18.78
2023-03-03T21:42:51.626Z,18.78
2023-03-03T21:45:34.919Z,18.79
2023-03-03T21:48:23.633Z,18.85
2023-03-03T21:51:05.902Z,18.92
2023-03-03T21:53:55.657Z,18.90
2023-03-03T21:56:39.036Z,18.90
2023-03-03T21:59:34.604Z,18.96
2023-03-03T22:02:23.615Z,18.93
2023-03-03T22:05:08.426Z,18.88
2023-03-03T22:07:58.694Z,18.82
2023-03-03T22:10:40.933Z,18.74
2023-03-03T22:13:31.033Z,18.68
2023-03-03T22:16:14.040Z,18.67
2023-03-03T22:19:02.848Z,18.69
2023-03-03T22:21:47.848Z,18.66
2023-03-03T22:24:37.601Z,18.63
2023-03-03T22:27:19.901Z,18.67
2023-03-03T22:30:08.621Z,18.59
2023-03-03T22:32:59.676Z,18.65
2023-03-03T22:35:48.978Z,18.57
2023-03-03T22:38:32.561Z,18.52
2023-03-03T22:41:15.571Z,18.55
2023-03-03T22:44:04.572Z,18.55
2023-03-03T22:46:46.818Z,18.55
2023-03-03T22:49:35.620Z,18.53
2023-03-03T22:52:17.853Z,18.54
2023-03-03T22:55:06.610Z,18.56
2023-03-03T22:57:49.130Z,18.57
2023-03-03T23:00:37.582Z,18.54
2023-03-03T23:03:21.903Z,18.53
2023-03-03T23:06:10.646Z,18.58
2023-03-03T23:08:58.898Z,18.61
2023-03-03T23:11:41.628Z,18.60
2023-03-03T23:14:29.941Z,18.64
2023-03-03T23:17:12.887Z,18.64
2023-03-03T23:19:54.800Z,18.71
2023-03-03T23:22:43.597Z,18.68
2023-03-03T23:25:26.771Z,18.67
2023-03-03T23:28:15.618Z,18.64
2023-03-03T23:31:04.643Z,18.72
2023-03-03T23:33:46.894Z,18.67
2023-03-03T23:36:35.633Z,18.61
2023-03-03T23:39:25.660Z,18.60
2023-03-03T23:42:13.919Z,18.63
2023-03-03T23:44:56.649Z,18.60
2023-03-03T23:47:45.648Z,18.55
2023-03-03T23:50:34.584Z,18.52
2023-03-03T23:53:22.929Z,18.50
2023-03-03T23:56:05.544Z,18.62
2023-03-03T23:58:47.928Z,18.62
